sensor_id;sensor_type;location;lat;lon;timestamp;P1;durP1;ratioP1;P2;durP2;ratioP2
8550;SDS011;4313;42.000;21.380;2022-10-31T00:00:17;1191.30;;;978.97;;
8550;SDS011;4313;42.000;21.380;2022-10-31T00:02:45;1229.15;;;995.47;;
8550;SDS011;4313;42.000;21.380;2022-10-31T00:05:12;1242.63;;;993.47;;
8550;SDS011;4313;42.000;21.380;2022-10-31T00:07:39;1170.25;;;968.42;;
8550;SDS011;4313;42.000;21.380;2022-10-31T00:10:08;1198.07;;;974.03;;
8550;SDS011;4313;42.000;21.380;2022-10-31T00:12:35;1190.70;;;992.40;;
8550;SDS011;4313;42.000;21.380;2022-10-31T00:15:03;1186.13;;;986.92;;
8550;SDS011;4313;42.000;21.380;2022-10-31T00:17:30;1130.10;;;974.97;;
8550;SDS011;4313;42.000;21.380;2022-10-31T00:19:57;1034.38;;;925.60;;
8550;SDS011;4313;42.000;21.380;2022-10-31T00:22:24;1010.08;;;904.38;;
8550;SDS011;4313;42.000;21.380;2022-10-31T00:24:51;1067.07;;;954.15;;
8550;SDS011;4313;42.000;21.380;2022-10-31T00:27:20;1069.88;;;957.78;;
8550;SDS011;4313;42.000;21.380;2022-10-31T00:29:47;1116.68;;;984.35;;
8550;SDS011;4313;42.000;21.380;2022-10-31T00:32:15;1054.32;;;943.35;;
8550;SDS011;4313;42.000;21.380;2022-10-31T00:34:42;1010.35;;;908.33;;
8550;SDS011;4313;42.000;21.380;2022-10-31T00:37:09;1071.70;;;955.72;;
8550;SDS011;4313;42.000;21.380;2022-10-31T00:39:36;1047.05;;;937.67;;
8550;SDS011;4313;42.000;21.380;2022-10-31T00:42:03;1150.68;;;979.65;;
8550;SDS011;4313;42.000;21.380;2022-10-31T00:44:32;1074.45;;;960.75;;
8550;SDS011;4313;42.000;21.380;2022-10-31T00:46:59;1404.93;;;999.90;;
8550;SDS011;4313;42.000;21.380;2022-10-31T00:49:26;1302.40;;;997.45;;
8550;SDS011;4313;42.000;21.380;2022-10-31T00:51:54;1364.75;;;998.78;;
8550;SDS011;4313;42.000;21.380;2022-10-31T00:54:21;1236.07;;;994.25;;
8550;SDS011;4313;42.000;21.380;2022-10-31T00:56:48;1062.80;;;942.17;;
8550;SDS011;4313;42.000;21.380;2022-10-31T00:59:15;1431.68;;;999.90;;
8550;SDS011;4313;42.000;21.380;2022-10-31T01:01:44;1424.50;;;999.90;;
8550;SDS011;4313;42.000;21.380;2022-10-31T01:04:11;1594.07;;;999.90;;
8550;SDS011;4313;42.000;21.380;2022-10-31T01:06:38;1859.40;;;999.90;;
8550;SDS011;4313;42.000;21.380;2022-10-31T01:09:05;1999.90;;;999.90;;
8550;SDS011;4313;42.000;21.380;2022-10-31T01:11:32;1999.90;;;999.90;;
8550;SDS011;4313;42.000;21.380;2022-10-31T01:14:02;1999.90;;;999.90;;
8550;SDS011;4313;42.000;21.380;2022-10-31T01:16:30;1999.90;;;999.90;;
8550;SDS011;4313;42.000;21.380;2022-10-31T01:18:59;1999.90;;;999.90;;
8550;SDS011;4313;42.000;21.380;2022-10-31T01:21:27;1999.90;;;999.90;;
8550;SDS011;4313;42.000;21.380;2022-10-31T01:23:57;1999.90;;;999.90;;
8550;SDS011;4313;42.000;21.380;2022-10-31T01:26:25;1999.90;;;999.90;;
8550;SDS011;4313;42.000;21.380;2022-10-31T01:28:54;1999.90;;;999.90;;
8550;SDS011;4313;42.000;21.380;2022-10-31T01:31:22;1999.90;;;999.90;;
8550;SDS011;4313;42.000;21.380;2022-10-31T01:33:51;1999.90;;;999.90;;
8550;SDS011;4313;42.000;21.380;2022-10-31T01:36:20;1999.90;;;999.90;;
8550;SDS011;4313;42.000;21.380;2022-10-31T01:38:52;1999.90;;;999.90;;
8550;SDS011;4313;42.000;21.380;2022-10-31T01:41:21;1999.90;;;967.75;;
8550;SDS011;4313;42.000;21.380;2022-10-31T01:43:50;1999.90;;;993.45;;
8550;SDS011;4313;42.000;21.380;2022-10-31T01:46:38;1999.90;;;999.90;;
8550;SDS011;4313;42.000;21.380;2022-10-31T01:49:08;1999.90;;;886.60;;
8550;SDS011;4313;42.000;21.380;2022-10-31T01:51:40;1999.90;;;999.90;;
8550;SDS011;4313;42.000;21.380;2022-10-31T01:54:09;1999.90;;;999.90;;
8550;SDS011;4313;42.000;21.380;2022-10-31T01:56:39;1999.90;;;999.90;;
8550;SDS011;4313;42.000;21.380;2022-10-31T01:59:07;1999.90;;;999.90;;
8550;SDS011;4313;42.000;21.380;2022-10-31T02:01:36;1999.90;;;999.90;;
8550;SDS011;4313;42.000;21.380;2022-10-31T02:04:04;1999.90;;;999.90;;
8550;SDS011;4313;42.000;21.380;2022-10-31T02:06:33;1999.90;;;999.90;;
8550;SDS011;4313;42.000;21.380;2022-10-31T02:09:11;1999.90;;;999.90;;
8550;SDS011;4313;42.000;21.380;2022-10-31T02:11:39;1999.90;;;999.90;;
8550;SDS011;4313;42.000;21.380;2022-10-31T02:14:10;1999.90;;;999.90;;
8550;SDS011;4313;42.000;21.380;2022-10-31T02:16:37;1999.90;;;999.90;;
8550;SDS011;4313;42.000;21.380;2022-10-31T02:19:04;1999.90;;;999.90;;
8550;SDS011;4313;42.000;21.380;2022-10-31T02:21:37;1999.90;;;999.90;;
8550;SDS011;4313;42.000;21.380;2022-10-31T02:27:09;1999.90;;;999.90;;
8550;SDS011;4313;42.000;21.380;2022-10-31T02:29:48;1999.90;;;999.90;;
8550;SDS011;4313;42.000;21.380;2022-10-31T02:32:50;1999.90;;;999.90;;
8550;SDS011;4313;42.000;21.380;2022-10-31T02:35:28;1999.90;;;999.90;;
8550;SDS011;4313;42.000;21.380;2022-10-31T02:38:03;1999.90;;;999.90;;
8550;SDS011;4313;42.000;21.380;2022-10-31T02:40:35;1999.90;;;999.90;;
8550;SDS011;4313;42.000;21.380;2022-10-31T02:43:26;1999.90;;;999.90;;
8550;SDS011;4313;42.000;21.380;2022-10-31T02:45:57;1999.90;;;999.90;;
8550;SDS011;4313;42.000;21.380;2022-10-31T02:48:28;1999.90;;;999.90;;
8550;SDS011;4313;42.000;21.380;2022-10-31T02:50:58;1999.90;;;999.90;;
8550;SDS011;4313;42.000;21.380;2022-10-31T02:53:31;1999.90;;;999.90;;
8550;SDS011;4313;42.000;21.380;2022-10-31T02:56:00;1999.90;;;999.90;;
8550;SDS011;4313;42.000;21.380;2022-10-31T02:58:29;1999.90;;;999.90;;
8550;SDS011;4313;42.000;21.380;2022-10-31T03:01:05;1999.90;;;999.90;;
8550;SDS011;4313;42.000;21.380;2022-10-31T03:04:04;1999.90;;;999.90;;
8550;SDS011;4313;42.000;21.380;2022-10-31T03:06:47;1999.90;;;999.90;;
8550;SDS011;4313;42.000;21.380;2022-10-31T03:09:19;1999.90;;;999.90;;
8550;SDS011;4313;42.000;21.380;2022-10-31T03:11:56;1999.90;;;999.90;;
8550;SDS011;4313;42.000;21.380;2022-10-31T03:14:26;1999.90;;;999.90;;
8550;SDS011;4313;42.000;21.380;2022-10-31T03:16:59;1999.90;;;999.90;;
8550;SDS011;4313;42.000;21.380;2022-10-31T03:19:33;1999.90;;;999.90;;
8550;SDS011;4313;42.000;21.380;2022-10-31T03:22:04;1999.90;;;999.90;;
8550;SDS011;4313;42.000;21.380;2022-10-31T03:24:35;1999.90;;;999.90;;
8550;SDS011;4313;42.000;21.380;2022-10-31T03:27:05;1999.90;;;999.90;;
8550;SDS011;4313;42.000;21.380;2022-10-31T03:29:35;1999.90;;;999.90;;
8550;SDS011;4313;42.000;21.380;2022-10-31T03:32:05;1999.90;;;999.90;;
8550;SDS011;4313;42.000;21.380;2022-10-31T03:34:35;1999.90;;;999.90;;
8550;SDS011;4313;42.000;21.380;2022-10-31T03:37:04;1999.90;;;999.90;;
8550;SDS011;4313;42.000;21.380;2022-10-31T03:39:34;1561.43;;;694.57;;
8550;SDS011;4313;42.000;21.380;2022-10-31T03:42:04;1507.13;;;686.63;;
8550;SDS011;4313;42.000;21.380;2022-10-31T03:44:33;1999.90;;;999.90;;
8550;SDS011;4313;42.000;21.380;2022-10-31T03:47:01;1999.90;;;999.90;;
8550;SDS011;4313;42.000;21.380;2022-10-31T03:49:30;1829.65;;;789.35;;
8550;SDS011;4313;42.000;21.380;2022-10-31T03:52:01;1779.20;;;718.20;;
8550;SDS011;4313;42.000;21.380;2022-10-31T03:54:30;1999.90;;;999.90;;
8550;SDS011;4313;42.000;21.380;2022-10-31T03:57:01;1931.20;;;739.23;;
8550;SDS011;4313;42.000;21.380;2022-10-31T03:59:32;1966.73;;;743.90;;
8550;SDS011;4313;42.000;21.380;2022-10-31T04:02:00;1603.10;;;693.53;;
8550;SDS011;4313;42.000;21.380;2022-10-31T04:04:30;1928.67;;;737.40;;
8550;SDS011;4313;42.000;21.380;2022-10-31T04:06:57;1658.53;;;703.20;;
8550;SDS011;4313;42.000;21.380;2022-10-31T04:09:27;1999.90;;;999.90;;
8550;SDS011;4313;42.000;21.380;2022-10-31T04:11:55;1999.90;;;999.90;;
8550;SDS011;4313;42.000;21.380;2022-10-31T04:14:52;1999.90;;;999.90;;
8550;SDS011;4313;42.000;21.380;2022-10-31T04:17:22;1234.47;;;391.70;;
8550;SDS011;4313;42.000;21.380;2022-10-31T04:19:49;822.10;;;93.60;;
8550;SDS011;4313;42.000;21.380;2022-10-31T04:22:18;1251.23;;;394.03;;
8550;SDS011;4313;42.000;21.380;2022-10-31T04:24:45;1770.90;;;209.90;;
8550;SDS011;4313;42.000;21.380;2022-10-31T04:27:15;1999.90;;;807.57;;
8550;SDS011;4313;42.000;21.380;2022-10-31T04:29:42;1999.90;;;775.37;;
8550;SDS011;4313;42.000;21.380;2022-10-31T04:32:09;1937.83;;;268.40;;
8550;SDS011;4313;42.000;21.380;2022-10-31T04:34:36;1999.90;;;758.10;;
8550;SDS011;4313;42.000;21.380;2022-10-31T04:37:04;1596.73;;;200.73;;
8550;SDS011;4313;42.000;21.380;2022-10-31T04:39:33;1725.10;;;231.47;;
8550;SDS011;4313;42.000;21.380;2022-10-31T04:42:28;1378.53;;;162.03;;
8550;SDS011;4313;42.000;21.380;2022-10-31T04:44:58;1698.80;;;702.03;;
8550;SDS011;4313;42.000;21.380;2022-10-31T04:47:25;1999.90;;;354.43;;
8550;SDS011;4313;42.000;21.380;2022-10-31T04:49:52;1999.90;;;436.63;;
8550;SDS011;4313;42.000;21.380;2022-10-31T04:52:20;1999.90;;;833.77;;
8550;SDS011;4313;42.000;21.380;2022-10-31T04:54:49;1999.90;;;325.53;;
8550;SDS011;4313;42.000;21.380;2022-10-31T04:57:42;1999.90;;;775.80;;
8550;SDS011;4313;42.000;21.380;2022-10-31T05:00:11;1441.50;;;172.17;;
8550;SDS011;4313;42.000;21.380;2022-10-31T05:02:43;1999.90;;;279.73;;
8550;SDS011;4313;42.000;21.380;2022-10-31T05:05:11;1999.90;;;338.37;;
8550;SDS011;4313;42.000;21.380;2022-10-31T05:07:38;1999.90;;;511.87;;
8550;SDS011;4313;42.000;21.380;2022-10-31T05:10:09;1999.90;;;535.30;;
8550;SDS011;4313;42.000;21.380;2022-10-31T05:12:37;1999.90;;;445.23;;
8550;SDS011;4313;42.000;21.380;2022-10-31T05:15:07;1999.90;;;510.07;;
8550;SDS011;4313;42.000;21.380;2022-10-31T05:18:06;1999.90;;;764.20;;
8550;SDS011;4313;42.000;21.380;2022-10-31T05:20:52;1999.90;;;415.13;;
8550;SDS011;4313;42.000;21.380;2022-10-31T05:23:45;1999.90;;;517.53;;
8550;SDS011;4313;42.000;21.380;2022-10-31T05:26:14;1999.90;;;674.50;;
8550;SDS011;4313;42.000;21.380;2022-10-31T05:28:41;1999.90;;;690.87;;
8550;SDS011;4313;42.000;21.380;2022-10-31T05:31:10;1999.90;;;518.80;;
8550;SDS011;4313;42.000;21.380;2022-10-31T05:33:37;1999.90;;;811.10;;
8550;SDS011;4313;42.000;21.380;2022-10-31T05:36:04;1999.90;;;957.13;;
8550;SDS011;4313;42.000;21.380;2022-10-31T05:38:35;1999.90;;;999.90;;
8550;SDS011;4313;42.000;21.380;2022-10-31T05:41:10;1999.90;;;999.90;;
8550;SDS011;4313;42.000;21.380;2022-10-31T05:43:42;1999.90;;;999.90;;
8550;SDS011;4313;42.000;21.380;2022-10-31T05:46:09;1999.90;;;999.90;;
8550;SDS011;4313;42.000;21.380;2022-10-31T05:48:55;1999.90;;;999.90;;
8550;SDS011;4313;42.000;21.380;2022-10-31T05:51:51;1999.90;;;860.00;;
8550;SDS011;4313;42.000;21.380;2022-10-31T05:54:21;1999.90;;;999.90;;
8550;SDS011;4313;42.000;21.380;2022-10-31T05:56:48;1999.90;;;962.95;;
8550;SDS011;4313;42.000;21.380;2022-10-31T05:59:18;1999.90;;;830.97;;
8550;SDS011;4313;42.000;21.380;2022-10-31T06:01:46;1999.90;;;664.17;;
8550;SDS011;4313;42.000;21.380;2022-10-31T06:04:45;1999.90;;;316.58;;
8550;SDS011;4313;42.000;21.380;2022-10-31T06:07:12;1957.82;;;798.67;;
8550;SDS011;4313;42.000;21.380;2022-10-31T06:09:39;1999.90;;;999.90;;
8550;SDS011;4313;42.000;21.380;2022-10-31T06:12:06;1999.90;;;999.90;;
8550;SDS011;4313;42.000;21.380;2022-10-31T06:14:53;1999.90;;;999.90;;
8550;SDS011;4313;42.000;21.380;2022-10-31T06:17:20;1999.90;;;999.90;;
8550;SDS011;4313;42.000;21.380;2022-10-31T06:19:47;1999.90;;;999.90;;
8550;SDS011;4313;42.000;21.380;2022-10-31T06:22:19;1999.90;;;999.90;;
8550;SDS011;4313;42.000;21.380;2022-10-31T06:24:47;1999.90;;;999.90;;
8550;SDS011;4313;42.000;21.380;2022-10-31T06:27:20;1089.88;;;975.22;;
8550;SDS011;4313;42.000;21.380;2022-10-31T06:29:48;392.02;;;339.40;;
8550;SDS011;4313;42.000;21.380;2022-10-31T06:32:28;1999.90;;;999.90;;
8550;SDS011;4313;42.000;21.380;2022-10-31T06:34:55;1999.90;;;999.90;;
8550;SDS011;4313;42.000;21.380;2022-10-31T06:37:22;1999.90;;;999.90;;
8550;SDS011;4313;42.000;21.380;2022-10-31T06:39:51;1999.90;;;398.38;;
8550;SDS011;4313;42.000;21.380;2022-10-31T06:42:18;1999.90;;;999.90;;
8550;SDS011;4313;42.000;21.380;2022-10-31T06:44:45;1999.90;;;999.90;;
8550;SDS011;4313;42.000;21.380;2022-10-31T06:47:51;735.88;;;678.05;;
8550;SDS011;4313;42.000;21.380;2022-10-31T06:50:24;1171.60;;;999.90;;
8550;SDS011;4313;42.000;21.380;2022-10-31T06:52:52;1415.18;;;999.90;;
8550;SDS011;4313;42.000;21.380;2022-10-31T06:55:20;1320.50;;;999.90;;
8550;SDS011;4313;42.000;21.380;2022-10-31T06:57:51;1326.85;;;999.90;;
8550;SDS011;4313;42.000;21.380;2022-10-31T07:00:19;1318.68;;;999.90;;
8550;SDS011;4313;42.000;21.380;2022-10-31T07:02:54;1320.35;;;999.90;;
8550;SDS011;4313;42.000;21.380;2022-10-31T07:05:22;1149.50;;;999.90;;
8550;SDS011;4313;42.000;21.380;2022-10-31T07:07:51;1163.13;;;999.90;;
8550;SDS011;4313;42.000;21.380;2022-10-31T07:10:21;1209.90;;;999.90;;
8550;SDS011;4313;42.000;21.380;2022-10-31T07:12:58;1203.57;;;999.90;;
8550;SDS011;4313;42.000;21.380;2022-10-31T07:15:25;1219.25;;;999.90;;
8550;SDS011;4313;42.000;21.380;2022-10-31T07:17:58;1228.28;;;999.90;;
8550;SDS011;4313;42.000;21.380;2022-10-31T07:20:25;1213.57;;;999.90;;
8550;SDS011;4313;42.000;21.380;2022-10-31T07:22:53;1050.18;;;967.55;;
8550;SDS011;4313;42.000;21.380;2022-10-31T07:25:20;1014.47;;;939.15;;
8550;SDS011;4313;42.000;21.380;2022-10-31T07:28:07;915.67;;;856.35;;
8550;SDS011;4313;42.000;21.380;2022-10-31T07:30:35;819.17;;;770.53;;
8550;SDS011;4313;42.000;21.380;2022-10-31T07:33:04;759.13;;;715.78;;
8550;SDS011;4313;42.000;21.380;2022-10-31T07:35:57;778.03;;;731.17;;
8550;SDS011;4313;42.000;21.380;2022-10-31T07:38:28;722.55;;;683.45;;
8550;SDS011;4313;42.000;21.380;2022-10-31T07:40:59;782.13;;;737.45;;
8550;SDS011;4313;42.000;21.380;2022-10-31T07:43:30;767.80;;;724.58;;
8550;SDS011;4313;42.000;21.380;2022-10-31T07:46:15;773.25;;;728.97;;
8550;SDS011;4313;42.000;21.380;2022-10-31T07:49:02;798.53;;;752.13;;
8550;SDS011;4313;42.000;21.380;2022-10-31T07:51:47;749.28;;;706.97;;
8550;SDS011;4313;42.000;21.380;2022-10-31T07:54:15;809.70;;;761.67;;
8550;SDS011;4313;42.000;21.380;2022-10-31T07:56:42;795.38;;;748.50;;
8550;SDS011;4313;42.000;21.380;2022-10-31T07:59:09;815.15;;;766.47;;
8550;SDS011;4313;42.000;21.380;2022-10-31T08:01:36;781.15;;;736.67;;
8550;SDS011;4313;42.000;21.380;2022-10-31T08:04:39;738.13;;;698.25;;
8550;SDS011;4313;42.000;21.380;2022-10-31T08:07:25;803.35;;;757.13;;
8550;SDS011;4313;42.000;21.380;2022-10-31T08:10:00;755.45;;;713.50;;
8550;SDS011;4313;42.000;21.380;2022-10-31T08:12:30;543.08;;;514.17;;
8550;SDS011;4313;42.000;21.380;2022-10-31T08:14:57;871.35;;;814.28;;
8550;SDS011;4313;42.000;21.380;2022-10-31T08:17:24;652.95;;;619.25;;
8550;SDS011;4313;42.000;21.380;2022-10-31T08:19:58;673.05;;;632.58;;
8550;SDS011;4313;42.000;21.380;2022-10-31T08:22:32;964.95;;;895.10;;
8550;SDS011;4313;42.000;21.380;2022-10-31T08:25:00;925.47;;;860.22;;
8550;SDS011;4313;42.000;21.380;2022-10-31T08:27:27;863.80;;;807.92;;
8550;SDS011;4313;42.000;21.380;2022-10-31T08:29:57;946.08;;;879.22;;
8550;SDS011;4313;42.000;21.380;2022-10-31T08:32:24;822.70;;;772.35;;
8550;SDS011;4313;42.000;21.380;2022-10-31T08:35:11;857.10;;;802.33;;
8550;SDS011;4313;42.000;21.380;2022-10-31T08:37:57;789.85;;;742.78;;
8550;SDS011;4313;42.000;21.380;2022-10-31T08:40:26;839.05;;;786.20;;
8550;SDS011;4313;42.000;21.380;2022-10-31T08:42:57;863.33;;;807.95;;
8550;SDS011;4313;42.000;21.380;2022-10-31T08:45:26;885.50;;;828.03;;
8550;SDS011;4313;42.000;21.380;2022-10-31T08:47:56;869.33;;;813.90;;
8550;SDS011;4313;42.000;21.380;2022-10-31T08:50:26;816.67;;;767.28;;
8550;SDS011;4313;42.000;21.380;2022-10-31T08:52:53;1024.82;;;947.30;;
8550;SDS011;4313;42.000;21.380;2022-10-31T08:55:25;978.30;;;904.30;;
8550;SDS011;4313;42.000;21.380;2022-10-31T08:57:54;1012.85;;;936.72;;
8550;SDS011;4313;42.000;21.380;2022-10-31T09:00:22;943.40;;;877.38;;
8550;SDS011;4313;42.000;21.380;2022-10-31T09:03:00;918.33;;;854.30;;
8550;SDS011;4313;42.000;21.380;2022-10-31T09:05:31;899.58;;;839.28;;
8550;SDS011;4313;42.000;21.380;2022-10-31T09:08:00;947.95;;;882.83;;
8550;SDS011;4313;42.000;21.380;2022-10-31T09:10:29;916.15;;;854.67;;
8550;SDS011;4313;42.000;21.380;2022-10-31T09:12:57;920.60;;;859.33;;
8550;SDS011;4313;42.000;21.380;2022-10-31T09:15:37;855.88;;;801.05;;
8550;SDS011;4313;42.000;21.380;2022-10-31T09:18:19;874.85;;;817.45;;
8550;SDS011;4313;42.000;21.380;2022-10-31T09:20:59;930.00;;;866.22;;
8550;SDS011;4313;42.000;21.380;2022-10-31T09:23:29;915.15;;;852.25;;
8550;SDS011;4313;42.000;21.380;2022-10-31T09:25:58;877.13;;;820.95;;
8550;SDS011;4313;42.000;21.380;2022-10-31T09:28:29;813.22;;;764.38;;
8550;SDS011;4313;42.000;21.380;2022-10-31T09:31:00;769.70;;;724.83;;
8550;SDS011;4313;42.000;21.380;2022-10-31T09:33:59;735.05;;;693.83;;
8550;SDS011;4313;42.000;21.380;2022-10-31T09:36:37;759.08;;;715.38;;
8550;SDS011;4313;42.000;21.380;2022-10-31T09:39:18;760.30;;;716.28;;
8550;SDS011;4313;42.000;21.380;2022-10-31T09:42:04;802.75;;;754.75;;
8550;SDS011;4313;42.000;21.380;2022-10-31T09:44:41;754.65;;;711.17;;
8550;SDS011;4313;42.000;21.380;2022-10-31T09:47:24;758.63;;;714.35;;
8550;SDS011;4313;42.000;21.380;2022-10-31T09:50:15;730.65;;;690.45;;
8550;SDS011;4313;42.000;21.380;2022-10-31T09:52:51;791.50;;;744.60;;
8550;SDS011;4313;42.000;21.380;2022-10-31T09:55:27;761.63;;;717.72;;
8550;SDS011;4313;42.000;21.380;2022-10-31T09:58:01;769.08;;;724.63;;
8550;SDS011;4313;42.000;21.380;2022-10-31T10:00:28;747.63;;;705.03;;
8550;SDS011;4313;42.000;21.380;2022-10-31T10:02:59;729.08;;;688.22;;
8550;SDS011;4313;42.000;21.380;2022-10-31T10:05:32;735.53;;;693.97;;
8550;SDS011;4313;42.000;21.380;2022-10-31T10:08:09;689.03;;;652.00;;
8550;SDS011;4313;42.000;21.380;2022-10-31T10:10:59;771.55;;;726.92;;
8550;SDS011;4313;42.000;21.380;2022-10-31T10:16:48;619.38;;;588.55;;
8550;SDS011;4313;42.000;21.380;2022-10-31T10:19:26;668.30;;;632.95;;
8550;SDS011;4313;42.000;21.380;2022-10-31T10:22:07;709.83;;;670.70;;
8550;SDS011;4313;42.000;21.380;2022-10-31T10:24:48;657.75;;;623.45;;
8550;SDS011;4313;42.000;21.380;2022-10-31T10:27:23;690.20;;;653.20;;
8550;SDS011;4313;42.000;21.380;2022-10-31T10:29:57;722.22;;;681.90;;
8550;SDS011;4313;42.000;21.380;2022-10-31T10:32:28;744.53;;;703.10;;
8550;SDS011;4313;42.000;21.380;2022-10-31T10:34:57;743.92;;;702.47;;
8550;SDS011;4313;42.000;21.380;2022-10-31T10:37:27;805.70;;;757.28;;
8550;SDS011;4313;42.000;21.380;2022-10-31T10:39:59;803.53;;;756.05;;
8550;SDS011;4313;42.000;21.380;2022-10-31T10:42:32;801.03;;;754.72;;
8550;SDS011;4313;42.000;21.380;2022-10-31T10:45:18;770.85;;;726.92;;
8550;SDS011;4313;42.000;21.380;2022-10-31T10:48:08;790.03;;;743.72;;
8550;SDS011;4313;42.000;21.380;2022-10-31T10:50:39;744.95;;;703.35;;
8550;SDS011;4313;42.000;21.380;2022-10-31T10:53:12;775.22;;;730.72;;
8550;SDS011;4313;42.000;21.380;2022-10-31T10:55:59;757.55;;;714.80;;
8550;SDS011;4313;42.000;21.380;2022-10-31T10:58:31;802.40;;;754.78;;
8550;SDS011;4313;42.000;21.380;2022-10-31T11:00:58;799.47;;;752.92;;
8550;SDS011;4313;42.000;21.380;2022-10-31T11:03:26;775.40;;;731.17;;
8550;SDS011;4313;42.000;21.380;2022-10-31T11:05:53;774.60;;;729.88;;
8550;SDS011;4313;42.000;21.380;2022-10-31T11:08:23;786.60;;;740.83;;
8550;SDS011;4313;42.000;21.380;2022-10-31T11:11:00;742.85;;;700.63;;
8550;SDS011;4313;42.000;21.380;2022-10-31T11:13:29;756.45;;;713.30;;
8550;SDS011;4313;42.000;21.380;2022-10-31T11:15:58;757.15;;;713.90;;
8550;SDS011;4313;42.000;21.380;2022-10-31T11:18:27;728.40;;;688.28;;
8550;SDS011;4313;42.000;21.380;2022-10-31T11:21:00;794.38;;;747.58;;
8550;SDS011;4313;42.000;21.380;2022-10-31T11:23:29;731.83;;;692.03;;
8550;SDS011;4313;42.000;21.380;2022-10-31T11:25:58;721.08;;;681.67;;
8550;SDS011;4313;42.000;21.380;2022-10-31T11:28:27;725.33;;;685.60;;
8550;SDS011;4313;42.000;21.380;2022-10-31T11:30:57;749.85;;;707.55;;
8550;SDS011;4313;42.000;21.380;2022-10-31T11:33:27;718.03;;;679.28;;
8550;SDS011;4313;42.000;21.380;2022-10-31T11:35:56;794.30;;;747.45;;
8550;SDS011;4313;42.000;21.380;2022-10-31T11:38:26;725.03;;;684.97;;
8550;SDS011;4313;42.000;21.380;2022-10-31T11:40:57;756.08;;;713.53;;
8550;SDS011;4313;42.000;21.380;2022-10-31T11:43:27;797.40;;;751.03;;
8550;SDS011;4313;42.000;21.380;2022-10-31T11:45:54;750.33;;;708.17;;
8550;SDS011;4313;42.000;21.380;2022-10-31T11:48:21;686.15;;;648.70;;
8550;SDS011;4313;42.000;21.380;2022-10-31T11:50:50;692.42;;;655.75;;
8550;SDS011;4313;42.000;21.380;2022-10-31T11:53:19;717.75;;;678.42;;
8550;SDS011;4313;42.000;21.380;2022-10-31T11:55:48;687.63;;;651.05;;
8550;SDS011;4313;42.000;21.380;2022-10-31T11:58:30;751.30;;;708.70;;
8550;SDS011;4313;42.000;21.380;2022-10-31T12:00:58;765.42;;;720.97;;
8550;SDS011;4313;42.000;21.380;2022-10-31T12:06:16;749.85;;;706.75;;
8550;SDS011;4313;42.000;21.380;2022-10-31T12:08:47;658.45;;;624.30;;
8550;SDS011;4313;42.000;21.380;2022-10-31T12:11:20;719.28;;;679.60;;
8550;SDS011;4313;42.000;21.380;2022-10-31T12:14:01;672.03;;;636.92;;
8550;SDS011;4313;42.000;21.380;2022-10-31T12:16:36;662.47;;;627.97;;
8550;SDS011;4313;42.000;21.380;2022-10-31T12:19:09;699.45;;;662.70;;
8550;SDS011;4313;42.000;21.380;2022-10-31T12:21:44;726.53;;;686.40;;
8550;SDS011;4313;42.000;21.380;2022-10-31T12:27:13;678.92;;;643.20;;
8550;SDS011;4313;42.000;21.380;2022-10-31T12:29:56;702.28;;;664.65;;
8550;SDS011;4313;42.000;21.380;2022-10-31T12:32:36;692.42;;;655.22;;
8550;SDS011;4313;42.000;21.380;2022-10-31T12:41:00;699.90;;;662.42;;
8550;SDS011;4313;42.000;21.380;2022-10-31T12:43:42;712.22;;;673.53;;
8550;SDS011;4313;42.000;21.380;2022-10-31T12:46:13;702.38;;;663.97;;
8550;SDS011;4313;42.000;21.380;2022-10-31T12:48:50;720.05;;;680.70;;
8550;SDS011;4313;42.000;21.380;2022-10-31T12:51:24;716.20;;;677.78;;
8550;SDS011;4313;42.000;21.380;2022-10-31T12:54:02;700.38;;;662.55;;
8550;SDS011;4313;42.000;21.380;2022-10-31T12:57:05;712.08;;;672.97;;
8550;SDS011;4313;42.000;21.380;2022-10-31T12:59:42;697.58;;;659.53;;
8550;SDS011;4313;42.000;21.380;2022-10-31T13:02:16;696.60;;;658.67;;
8550;SDS011;4313;42.000;21.380;2022-10-31T13:04:47;720.33;;;680.38;;
8550;SDS011;4313;42.000;21.380;2022-10-31T13:07:19;714.47;;;675.80;;
8550;SDS011;4313;42.000;21.380;2022-10-31T13:09:50;693.72;;;656.40;;
8550;SDS011;4313;42.000;21.380;2022-10-31T13:12:22;714.78;;;676.03;;
8550;SDS011;4313;42.000;21.380;2022-10-31T13:14:53;713.55;;;675.08;;
8550;SDS011;4313;42.000;21.380;2022-10-31T13:17:22;825.63;;;775.17;;
8550;SDS011;4313;42.000;21.380;2022-10-31T13:19:53;736.95;;;695.35;;
8550;SDS011;4313;42.000;21.380;2022-10-31T13:22:27;716.20;;;677.13;;
8550;SDS011;4313;42.000;21.380;2022-10-31T13:24:57;735.78;;;694.80;;
8550;SDS011;4313;42.000;21.380;2022-10-31T13:27:29;722.60;;;682.80;;
8550;SDS011;4313;42.000;21.380;2022-10-31T13:30:03;723.78;;;684.25;;
8550;SDS011;4313;42.000;21.380;2022-10-31T13:32:36;708.58;;;670.20;;
8550;SDS011;4313;42.000;21.380;2022-10-31T13:35:07;717.85;;;678.80;;
8550;SDS011;4313;42.000;21.380;2022-10-31T13:37:40;715.20;;;675.40;;
8550;SDS011;4313;42.000;21.380;2022-10-31T13:40:12;712.55;;;674.53;;
8550;SDS011;4313;42.000;21.380;2022-10-31T13:42:49;713.53;;;674.47;;
8550;SDS011;4313;42.000;21.380;2022-10-31T13:45:22;753.90;;;707.83;;
8550;SDS011;4313;42.000;21.380;2022-10-31T13:47:57;711.15;;;673.25;;
8550;SDS011;4313;42.000;21.380;2022-10-31T13:50:26;711.55;;;673.10;;
8550;SDS011;4313;42.000;21.380;2022-10-31T13:53:09;688.75;;;652.38;;
8550;SDS011;4313;42.000;21.380;2022-10-31T13:55:39;684.35;;;647.60;;
8550;SDS011;4313;42.000;21.380;2022-10-31T13:58:25;681.05;;;644.85;;
8550;SDS011;4313;42.000;21.380;2022-10-31T14:03:43;680.95;;;645.10;;
8550;SDS011;4313;42.000;21.380;2022-10-31T14:06:11;674.13;;;638.72;;
8550;SDS011;4313;42.000;21.380;2022-10-31T14:08:40;668.22;;;633.70;;
8550;SDS011;4313;42.000;21.380;2022-10-31T14:11:17;665.95;;;631.28;;
8550;SDS011;4313;42.000;21.380;2022-10-31T14:13:48;669.35;;;635.03;;
8550;SDS011;4313;42.000;21.380;2022-10-31T14:16:20;646.45;;;614.17;;
8550;SDS011;4313;42.000;21.380;2022-10-31T14:18:50;651.40;;;618.78;;
8550;SDS011;4313;42.000;21.380;2022-10-31T14:21:27;650.20;;;617.67;;
8550;SDS011;4313;42.000;21.380;2022-10-31T14:23:56;646.05;;;613.22;;
8550;SDS011;4313;42.000;21.380;2022-10-31T14:26:31;646.08;;;612.58;;
8550;SDS011;4313;42.000;21.380;2022-10-31T14:31:53;617.58;;;586.97;;
8550;SDS011;4313;42.000;21.380;2022-10-31T14:34:23;635.42;;;604.17;;
8550;SDS011;4313;42.000;21.380;2022-10-31T14:37:02;646.75;;;613.92;;
8550;SDS011;4313;42.000;21.380;2022-10-31T14:39:57;626.38;;;595.50;;
8550;SDS011;4313;42.000;21.380;2022-10-31T14:42:34;639.42;;;607.10;;
8550;SDS011;4313;42.000;21.380;2022-10-31T14:45:16;630.25;;;598.78;;
8550;SDS011;4313;42.000;21.380;2022-10-31T14:47:52;646.53;;;614.25;;
8550;SDS011;4313;42.000;21.380;2022-10-31T14:53:19;642.65;;;610.47;;
8550;SDS011;4313;42.000;21.380;2022-10-31T14:55:49;647.75;;;615.15;;
8550;SDS011;4313;42.000;21.380;2022-10-31T14:58:19;644.38;;;612.45;;
8550;SDS011;4313;42.000;21.380;2022-10-31T15:00:50;667.42;;;633.53;;